Trinity, North Carolina
Current Conditions -  °F | °C
As of 10:54 AM on Friday 19 Dec 2014 (Local Time) from KGSO Reporting Station
Scattered Clouds Scattered Clouds  
Wind Chill: 43°   Ceiling: Unl
Heat Index: 47°   Visibility: 10mi
Dew Point: 17°   Wind: 9mph
Humidity: 30%   Direction: 330°NNW
Pressure: 30.15"   Gusts: NA
Location:  35.89°N, 79.99°W
Report Text: KGSO 191554Z 33008KT 10SM FEW065 SCT250 08/M08 A3015 RMK AO2 SLP213 T00831083
Loading
Personal Weather Stations






























Interactive Weather Map New forecast layout! Learn more

10-Day Weather Forecast

Advertisements
Track Severe Weather on mobile